sensor_id;sensor_type;location;lat;lon;timestamp;temperature;humidity
68990;DHT22;56046;47.270;11.368;2022-10-19T00:01:20;11.26;92.99
68990;DHT22;56046;47.270;11.368;2022-10-19T00:03:51;11.23;93.42
68990;DHT22;56046;47.270;11.368;2022-10-19T00:08:54;11.29;93.01
68990;DHT22;56046;47.270;11.368;2022-10-19T00:11:20;11.37;92.34
68990;DHT22;56046;47.270;11.368;2022-10-19T00:13:46;11.40;91.86
68990;DHT22;56046;47.270;11.368;2022-10-19T00:16:13;11.37;92.07
68990;DHT22;56046;47.270;11.368;2022-10-19T00:18:40;11.34;91.83
68990;DHT22;56046;47.270;11.368;2022-10-19T00:21:08;11.24;92.30
68990;DHT22;56046;47.270;11.368;2022-10-19T00:23:35;11.17;92.63
68990;DHT22;56046;47.270;11.368;2022-10-19T00:26:00;11.26;92.20
68990;DHT22;56046;47.270;11.368;2022-10-19T00:28:26;11.26;91.77
68990;DHT22;56046;47.270;11.368;2022-10-19T00:30:52;11.30;91.54
68990;DHT22;56046;47.270;11.368;2022-10-19T00:33:18;11.38;90.75
68990;DHT22;56046;47.270;11.368;2022-10-19T00:35:50;11.38;90.62
68990;DHT22;56046;47.270;11.368;2022-10-19T00:38:17;11.31;90.78
68990;DHT22;56046;47.270;11.368;2022-10-19T00:40:44;11.27;91.00
68990;DHT22;56046;47.270;11.368;2022-10-19T00:43:19;11.26;90.64
68990;DHT22;56046;47.270;11.368;2022-10-19T06:27:03;10.09;95.73
68990;DHT22;56046;47.270;11.368;2022-10-19T06:29:30;10.17;95.10
68990;DHT22;56046;47.270;11.368;2022-10-19T06:31:56;10.16;94.82
68990;DHT22;56046;47.270;11.368;2022-10-19T06:34:23;10.20;94.91
68990;DHT22;56046;47.270;11.368;2022-10-19T06:36:49;10.32;94.97
68990;DHT22;56046;47.270;11.368;2022-10-19T06:39:14;10.45;94.59
68990;DHT22;56046;47.270;11.368;2022-10-19T06:41:40;10.57;93.75
68990;DHT22;56046;47.270;11.368;2022-10-19T06:44:05;10.62;93.13
68990;DHT22;56046;47.270;11.368;2022-10-19T06:46:30;10.64;93.02
68990;DHT22;56046;47.270;11.368;2022-10-19T06:48:58;10.69;92.95
68990;DHT22;56046;47.270;11.368;2022-10-19T06:51:25;10.72;93.03
68990;DHT22;56046;47.270;11.368;2022-10-19T06:53:51;10.82;92.62
68990;DHT22;56046;47.270;11.368;2022-10-19T06:56:17;10.92;92.42
68990;DHT22;56046;47.270;11.368;2022-10-19T06:58:43;11.00;91.83
68990;DHT22;56046;47.270;11.368;2022-10-19T07:01:09;11.10;91.61
68990;DHT22;56046;47.270;11.368;2022-10-19T07:03:36;11.20;91.24
68990;DHT22;56046;47.270;11.368;2022-10-19T07:06:07;11.30;91.07
68990;DHT22;56046;47.270;11.368;2022-10-19T07:08:33;11.36;90.75
68990;DHT22;56046;47.270;11.368;2022-10-19T07:11:02;11.44;90.18
68990;DHT22;56046;47.270;11.368;2022-10-19T07:13:29;11.50;90.14
68990;DHT22;56046;47.270;11.368;2022-10-19T07:16:02;11.55;89.78
68990;DHT22;56046;47.270;11.368;2022-10-19T07:18:30;11.61;89.44
68990;DHT22;56046;47.270;11.368;2022-10-19T07:21:00;11.70;89.04
68990;DHT22;56046;47.270;11.368;2022-10-19T07:23:27;11.74;88.76
68990;DHT22;56046;47.270;11.368;2022-10-19T07:25:54;11.81;88.83
68990;DHT22;56046;47.270;11.368;2022-10-19T07:28:24;11.84;88.70
68990;DHT22;56046;47.270;11.368;2022-10-19T07:30:50;11.93;87.82
68990;DHT22;56046;47.270;11.368;2022-10-19T07:33:15;11.96;87.60
68990;DHT22;56046;47.270;11.368;2022-10-19T07:35:41;12.09;88.00
68990;DHT22;56046;47.270;11.368;2022-10-19T07:38:06;12.13;87.87
68990;DHT22;56046;47.270;11.368;2022-10-19T07:40:32;12.28;87.46
68990;DHT22;56046;47.270;11.368;2022-10-19T07:42:58;12.39;86.75
68990;DHT22;56046;47.270;11.368;2022-10-19T07:45:23;12.49;86.25
68990;DHT22;56046;47.270;11.368;2022-10-19T07:47:49;12.58;86.11
68990;DHT22;56046;47.270;11.368;2022-10-19T07:50:14;12.65;85.85
68990;DHT22;56046;47.270;11.368;2022-10-19T07:52:40;12.73;85.78
68990;DHT22;56046;47.270;11.368;2022-10-19T07:55:05;12.81;85.23
68990;DHT22;56046;47.270;11.368;2022-10-19T07:57:31;12.88;84.98
68990;DHT22;56046;47.270;11.368;2022-10-19T07:59:57;12.99;84.74
68990;DHT22;56046;47.270;11.368;2022-10-19T08:02:22;13.05;84.22
68990;DHT22;56046;47.270;11.368;2022-10-19T08:04:47;13.13;84.19
68990;DHT22;56046;47.270;11.368;2022-10-19T08:07:13;13.20;83.73
68990;DHT22;56046;47.270;11.368;2022-10-19T08:09:38;13.27;83.83
68990;DHT22;56046;47.270;11.368;2022-10-19T08:12:04;13.39;83.39
68990;DHT22;56046;47.270;11.368;2022-10-19T08:14:30;13.43;82.94
68990;DHT22;56046;47.270;11.368;2022-10-19T08:16:55;13.51;82.79
68990;DHT22;56046;47.270;11.368;2022-10-19T08:19:21;13.60;83.07
68990;DHT22;56046;47.270;11.368;2022-10-19T08:21:47;13.71;82.89
68990;DHT22;56046;47.270;11.368;2022-10-19T08:24:14;13.75;82.43
68990;DHT22;56046;47.270;11.368;2022-10-19T08:26:40;13.82;81.86
68990;DHT22;56046;47.270;11.368;2022-10-19T08:29:09;13.91;81.12
68990;DHT22;56046;47.270;11.368;2022-10-19T08:31:35;13.91;81.73
68990;DHT22;56046;47.270;11.368;2022-10-19T08:34:01;13.97;80.99
68990;DHT22;56046;47.270;11.368;2022-10-19T08:36:26;14.11;80.60
68990;DHT22;56046;47.270;11.368;2022-10-19T08:38:55;14.21;80.00
68990;DHT22;56046;47.270;11.368;2022-10-19T08:41:31;14.26;79.34
68990;DHT22;56046;47.270;11.368;2022-10-19T08:49:17;14.45;79.65
68990;DHT22;56046;47.270;11.368;2022-10-19T08:51:48;14.52;80.07
68990;DHT22;56046;47.270;11.368;2022-10-19T08:54:16;14.69;79.74
68990;DHT22;56046;47.270;11.368;2022-10-19T08:59:44;14.90;78.74
68990;DHT22;56046;47.270;11.368;2022-10-19T09:02:23;14.92;77.30
68990;DHT22;56046;47.270;11.368;2022-10-19T09:04:59;15.08;77.69
68990;DHT22;56046;47.270;11.368;2022-10-19T09:07:32;15.17;77.51
68990;DHT22;56046;47.270;11.368;2022-10-19T09:10:09;15.21;77.55
68990;DHT22;56046;47.270;11.368;2022-10-19T09:13:09;15.29;76.05
68990;DHT22;56046;47.270;11.368;2022-10-19T09:15:45;15.42;75.50
68990;DHT22;56046;47.270;11.368;2022-10-19T09:20:45;15.66;75.47
68990;DHT22;56046;47.270;11.368;2022-10-19T09:23:30;15.82;75.51
68990;DHT22;56046;47.270;11.368;2022-10-19T09:25:58;15.87;74.60
68990;DHT22;56046;47.270;11.368;2022-10-19T09:31:04;15.94;73.89
68990;DHT22;56046;47.270;11.368;2022-10-19T09:33:34;16.03;74.53
68990;DHT22;56046;47.270;11.368;2022-10-19T09:36:02;16.10;74.34
68990;DHT22;56046;47.270;11.368;2022-10-19T09:38:29;16.21;74.26
68990;DHT22;56046;47.270;11.368;2022-10-19T09:40:57;16.28;73.21
68990;DHT22;56046;47.270;11.368;2022-10-19T09:43:24;16.28;73.47
68990;DHT22;56046;47.270;11.368;2022-10-19T09:45:56;16.42;72.52
68990;DHT22;56046;47.270;11.368;2022-10-19T09:48:28;16.55;72.12
68990;DHT22;56046;47.270;11.368;2022-10-19T09:50:59;16.72;71.40
68990;DHT22;56046;47.270;11.368;2022-10-19T09:53:26;16.80;70.75
68990;DHT22;56046;47.270;11.368;2022-10-19T09:56:19;16.79;70.19
68990;DHT22;56046;47.270;11.368;2022-10-19T09:58:53;16.90;70.89
68990;DHT22;56046;47.270;11.368;2022-10-19T10:01:37;16.94;70.26
68990;DHT22;56046;47.270;11.368;2022-10-19T10:04:08;17.06;69.54
68990;DHT22;56046;47.270;11.368;2022-10-19T10:06:34;17.11;69.73
68990;DHT22;56046;47.270;11.368;2022-10-19T10:09:00;17.17;69.29
68990;DHT22;56046;47.270;11.368;2022-10-19T10:11:36;17.25;69.10
68990;DHT22;56046;47.270;11.368;2022-10-19T10:14:32;17.36;68.93
68990;DHT22;56046;47.270;11.368;2022-10-19T10:17:01;17.45;67.71
68990;DHT22;56046;47.270;11.368;2022-10-19T10:19:29;17.58;67.91
68990;DHT22;56046;47.270;11.368;2022-10-19T10:21:56;17.70;67.49
68990;DHT22;56046;47.270;11.368;2022-10-19T10:24:27;17.80;66.48
68990;DHT22;56046;47.270;11.368;2022-10-19T10:27:01;17.93;66.73
68990;DHT22;56046;47.270;11.368;2022-10-19T10:29:33;18.07;65.33
68990;DHT22;56046;47.270;11.368;2022-10-19T10:34:38;18.16;64.22
68990;DHT22;56046;47.270;11.368;2022-10-19T10:37:07;18.31;64.08
68990;DHT22;56046;47.270;11.368;2022-10-19T10:39:41;18.37;63.98
68990;DHT22;56046;47.270;11.368;2022-10-19T10:42:16;18.56;63.58
68990;DHT22;56046;47.270;11.368;2022-10-19T10:44:53;18.71;62.44
68990;DHT22;56046;47.270;11.368;2022-10-19T10:47:20;18.81;62.87
68990;DHT22;56046;47.270;11.368;2022-10-19T10:50:00;18.86;62.82
68990;DHT22;56046;47.270;11.368;2022-10-19T10:52:28;18.95;61.73
68990;DHT22;56046;47.270;11.368;2022-10-19T10:57:27;19.04;60.87
68990;DHT22;56046;47.270;11.368;2022-10-19T11:00:09;19.14;60.72
68990;DHT22;56046;47.270;11.368;2022-10-19T11:03:06;19.20;60.32
68990;DHT22;56046;47.270;11.368;2022-10-19T11:05:39;19.31;61.12
68990;DHT22;56046;47.270;11.368;2022-10-19T11:10:46;19.47;59.58
68990;DHT22;56046;47.270;11.368;2022-10-19T11:13:21;19.55;59.55
68990;DHT22;56046;47.270;11.368;2022-10-19T11:15:58;19.54;58.88
68990;DHT22;56046;47.270;11.368;2022-10-19T11:18:29;19.54;59.63
68990;DHT22;56046;47.270;11.368;2022-10-19T11:34:10;19.76;59.34
68990;DHT22;56046;47.270;11.368;2022-10-19T11:36:48;19.76;59.17
68990;DHT22;56046;47.270;11.368;2022-10-19T11:39:41;19.78;59.27
68990;DHT22;56046;47.270;11.368;2022-10-19T11:44:54;19.71;59.82
68990;DHT22;56046;47.270;11.368;2022-10-19T11:56:17;19.79;60.69
68990;DHT22;56046;47.270;11.368;2022-10-19T11:58:58;19.87;59.77
68990;DHT22;56046;47.270;11.368;2022-10-19T12:01:40;19.89;59.73
68990;DHT22;56046;47.270;11.368;2022-10-19T12:06:50;19.87;59.82
68990;DHT22;56046;47.270;11.368;2022-10-19T12:12:26;20.05;59.20
68990;DHT22;56046;47.270;11.368;2022-10-19T12:15:00;20.10;59.15
68990;DHT22;56046;47.270;11.368;2022-10-19T12:17:30;20.13;58.76
68990;DHT22;56046;47.270;11.368;2022-10-19T12:20:00;20.02;58.23
68990;DHT22;56046;47.270;11.368;2022-10-19T12:22:29;20.09;58.72
68990;DHT22;56046;47.270;11.368;2022-10-19T12:24:57;20.08;59.41
68990;DHT22;56046;47.270;11.368;2022-10-19T12:27:35;20.05;59.09
68990;DHT22;56046;47.270;11.368;2022-10-19T12:30:12;20.10;59.24
68990;DHT22;56046;47.270;11.368;2022-10-19T12:33:06;20.00;60.07
68990;DHT22;56046;47.270;11.368;2022-10-19T12:38:08;20.10;59.17
68990;DHT22;56046;47.270;11.368;2022-10-19T12:43:37;20.22;59.70
68990;DHT22;56046;47.270;11.368;2022-10-19T12:51:57;20.19;60.23
68990;DHT22;56046;47.270;11.368;2022-10-19T12:54:24;20.12;60.59
68990;DHT22;56046;47.270;11.368;2022-10-19T12:56:52;19.97;61.71
68990;DHT22;56046;47.270;11.368;2022-10-19T12:59:28;19.96;61.44
68990;DHT22;56046;47.270;11.368;2022-10-19T13:01:54;19.99;61.54
68990;DHT22;56046;47.270;11.368;2022-10-19T13:04:22;19.79;61.92
68990;DHT22;56046;47.270;11.368;2022-10-19T13:07:03;19.93;61.34
68990;DHT22;56046;47.270;11.368;2022-10-19T13:09:42;20.00;61.22
68990;DHT22;56046;47.270;11.368;2022-10-19T13:14:57;20.09;61.06
68990;DHT22;56046;47.270;11.368;2022-10-19T13:22:45;19.90;62.30
68990;DHT22;56046;47.270;11.368;2022-10-19T13:25:28;19.87;62.79
68990;DHT22;56046;47.270;11.368;2022-10-19T13:38:38;19.57;64.27
68990;DHT22;56046;47.270;11.368;2022-10-19T13:56:49;19.58;65.75
68990;DHT22;56046;47.270;11.368;2022-10-19T13:59:29;19.65;65.18
68990;DHT22;56046;47.270;11.368;2022-10-19T14:07:25;19.65;64.47
68990;DHT22;56046;47.270;11.368;2022-10-19T14:10:11;19.66;64.20
68990;DHT22;56046;47.270;11.368;2022-10-19T14:12:43;19.66;64.63
68990;DHT22;56046;47.270;11.368;2022-10-19T14:15:26;19.64;65.05
68990;DHT22;56046;47.270;11.368;2022-10-19T14:17:52;19.58;65.35
68990;DHT22;56046;47.270;11.368;2022-10-19T14:20:29;19.54;65.19
68990;DHT22;56046;47.270;11.368;2022-10-19T14:22:54;19.54;65.80
68990;DHT22;56046;47.270;11.368;2022-10-19T14:25:22;19.46;66.35
68990;DHT22;56046;47.270;11.368;2022-10-19T14:27:57;19.48;65.73
68990;DHT22;56046;47.270;11.368;2022-10-19T14:30:34;19.35;66.30
68990;DHT22;56046;47.270;11.368;2022-10-19T14:33:06;19.32;66.78
68990;DHT22;56046;47.270;11.368;2022-10-19T14:35:35;19.27;66.98
68990;DHT22;56046;47.270;11.368;2022-10-19T14:38:02;19.21;67.44
68990;DHT22;56046;47.270;11.368;2022-10-19T14:40:32;19.13;67.47
68990;DHT22;56046;47.270;11.368;2022-10-19T14:42:58;19.03;67.89
68990;DHT22;56046;47.270;11.368;2022-10-19T14:45:27;18.99;68.24
68990;DHT22;56046;47.270;11.368;2022-10-19T14:48:03;18.90;68.72
68990;DHT22;56046;47.270;11.368;2022-10-19T14:50:45;18.96;68.79
68990;DHT22;56046;47.270;11.368;2022-10-19T14:55:47;18.88;69.38
68990;DHT22;56046;47.270;11.368;2022-10-19T14:58:16;18.77;70.03
68990;DHT22;56046;47.270;11.368;2022-10-19T15:00:44;18.76;69.89
68990;DHT22;56046;47.270;11.368;2022-10-19T15:03:23;18.71;70.44
68990;DHT22;56046;47.270;11.368;2022-10-19T15:05:55;18.56;70.98
68990;DHT22;56046;47.270;11.368;2022-10-19T15:08:30;18.59;71.33
68990;DHT22;56046;47.270;11.368;2022-10-19T15:11:02;18.45;71.64
68990;DHT22;56046;47.270;11.368;2022-10-19T15:13:33;18.45;71.52
68990;DHT22;56046;47.270;11.368;2022-10-19T15:15:59;18.40;71.93
68990;DHT22;56046;47.270;11.368;2022-10-19T15:18:26;18.37;71.89
68990;DHT22;56046;47.270;11.368;2022-10-19T15:26:00;18.16;73.03
68990;DHT22;56046;47.270;11.368;2022-10-19T15:28:33;18.04;73.89
68990;DHT22;56046;47.270;11.368;2022-10-19T15:31:00;17.96;73.96
68990;DHT22;56046;47.270;11.368;2022-10-19T15:33:28;17.90;74.33
68990;DHT22;56046;47.270;11.368;2022-10-19T15:36:05;17.73;75.10
68990;DHT22;56046;47.270;11.368;2022-10-19T15:38:32;17.69;75.22
68990;DHT22;56046;47.270;11.368;2022-10-19T15:41:00;17.59;75.66
68990;DHT22;56046;47.270;11.368;2022-10-19T15:46:28;17.31;76.75
68990;DHT22;56046;47.270;11.368;2022-10-19T15:51:43;17.04;78.34
68990;DHT22;56046;47.270;11.368;2022-10-19T15:54:09;16.88;78.31
68990;DHT22;56046;47.270;11.368;2022-10-19T15:56:37;16.84;78.58
68990;DHT22;56046;47.270;11.368;2022-10-19T15:59:18;16.75;78.86
68990;DHT22;56046;47.270;11.368;2022-10-19T16:01:45;16.65;79.26
68990;DHT22;56046;47.270;11.368;2022-10-19T16:04:12;16.69;79.20
68990;DHT22;56046;47.270;11.368;2022-10-19T16:06:40;16.55;79.81
68990;DHT22;56046;47.270;11.368;2022-10-19T16:09:07;16.47;80.23
68990;DHT22;56046;47.270;11.368;2022-10-19T16:11:33;16.38;80.52
68990;DHT22;56046;47.270;11.368;2022-10-19T16:14:01;16.26;80.94
68990;DHT22;56046;47.270;11.368;2022-10-19T16:16:31;16.11;81.78
68990;DHT22;56046;47.270;11.368;2022-10-19T16:18:57;16.07;81.91
68990;DHT22;56046;47.270;11.368;2022-10-19T16:21:29;15.91;82.63
68990;DHT22;56046;47.270;11.368;2022-10-19T16:23:55;15.86;82.99
68990;DHT22;56046;47.270;11.368;2022-10-19T16:26:21;15.86;83.06
68990;DHT22;56046;47.270;11.368;2022-10-19T16:28:47;15.87;82.97
68990;DHT22;56046;47.270;11.368;2022-10-19T16:31:13;15.74;83.59
68990;DHT22;56046;47.270;11.368;2022-10-19T16:33:39;15.71;83.78
68990;DHT22;56046;47.270;11.368;2022-10-19T16:36:05;15.65;83.92
68990;DHT22;56046;47.270;11.368;2022-10-19T16:38:32;15.59;84.14
68990;DHT22;56046;47.270;11.368;2022-10-19T16:41:02;15.46;84.66
68990;DHT22;56046;47.270;11.368;2022-10-19T16:43:28;15.35;84.78
68990;DHT22;56046;47.270;11.368;2022-10-19T16:45:54;15.18;85.36
68990;DHT22;56046;47.270;11.368;2022-10-19T16:48:20;15.08;85.82
68990;DHT22;56046;47.270;11.368;2022-10-19T16:53:36;14.91;86.57
68990;DHT22;56046;47.270;11.368;2022-10-19T16:56:07;14.84;86.76
68990;DHT22;56046;47.270;11.368;2022-10-19T16:58:33;14.83;86.81
68990;DHT22;56046;47.270;11.368;2022-10-19T17:01:05;14.92;86.58
68990;DHT22;56046;47.270;11.368;2022-10-19T17:03:31;14.92;86.27
68990;DHT22;56046;47.270;11.368;2022-10-19T17:05:56;14.83;86.41
68990;DHT22;56046;47.270;11.368;2022-10-19T17:08:22;14.81;86.86
68990;DHT22;56046;47.270;11.368;2022-10-19T17:10:47;14.73;86.68
68990;DHT22;56046;47.270;11.368;2022-10-19T17:13:13;14.64;87.05
68990;DHT22;56046;47.270;11.368;2022-10-19T17:15:38;14.77;86.96
68990;DHT22;56046;47.270;11.368;2022-10-19T17:18:04;14.70;87.19
68990;DHT22;56046;47.270;11.368;2022-10-19T17:20:31;14.71;86.95
68990;DHT22;56046;47.270;11.368;2022-10-19T17:22:57;14.63;87.47
68990;DHT22;56046;47.270;11.368;2022-10-19T17:25:23;14.66;87.46
68990;DHT22;56046;47.270;11.368;2022-10-19T17:27:50;14.66;87.63
68990;DHT22;56046;47.270;11.368;2022-10-19T17:30:16;14.62;87.47
68990;DHT22;56046;47.270;11.368;2022-10-19T17:32:42;14.60;87.57
68990;DHT22;56046;47.270;11.368;2022-10-19T17:35:08;14.47;87.85
68990;DHT22;56046;47.270;11.368;2022-10-19T17:37:34;14.36;88.30
68990;DHT22;56046;47.270;11.368;2022-10-19T17:40:00;14.35;88.33
68990;DHT22;56046;47.270;11.368;2022-10-19T17:42:26;14.22;88.58
68990;DHT22;56046;47.270;11.368;2022-10-19T17:44:55;14.18;89.01
68990;DHT22;56046;47.270;11.368;2022-10-19T17:47:22;14.18;89.30
68990;DHT22;56046;47.270;11.368;2022-10-19T17:49:48;14.29;88.97
68990;DHT22;56046;47.270;11.368;2022-10-19T17:52:13;14.22;88.70
68990;DHT22;56046;47.270;11.368;2022-10-19T17:54:39;14.26;88.79
68990;DHT22;56046;47.270;11.368;2022-10-19T17:57:06;14.21;88.79
68990;DHT22;56046;47.270;11.368;2022-10-19T17:59:32;14.12;88.90
68990;DHT22;56046;47.270;11.368;2022-10-19T18:01:58;14.21;89.11
68990;DHT22;56046;47.270;11.368;2022-10-19T18:04:25;14.25;88.83
68990;DHT22;56046;47.270;11.368;2022-10-19T18:06:51;14.29;88.54
68990;DHT22;56046;47.270;11.368;2022-10-19T18:09:17;14.30;88.55
68990;DHT22;56046;47.270;11.368;2022-10-19T18:11:43;14.26;88.48
68990;DHT22;56046;47.270;11.368;2022-10-19T18:14:11;14.30;88.44
68990;DHT22;56046;47.270;11.368;2022-10-19T18:16:43;14.25;88.59
68990;DHT22;56046;47.270;11.368;2022-10-19T18:19:12;14.19;88.80
68990;DHT22;56046;47.270;11.368;2022-10-19T18:21:40;14.15;88.76
68990;DHT22;56046;47.270;11.368;2022-10-19T18:24:10;14.22;88.64
68990;DHT22;56046;47.270;11.368;2022-10-19T18:26:38;14.21;88.69
68990;DHT22;56046;47.270;11.368;2022-10-19T18:29:13;14.16;88.87
68990;DHT22;56046;47.270;11.368;2022-10-19T18:31:40;14.09;89.07
68990;DHT22;56046;47.270;11.368;2022-10-19T18:34:11;14.05;89.11
68990;DHT22;56046;47.270;11.368;2022-10-19T18:36:37;13.92;89.66
68990;DHT22;56046;47.270;11.368;2022-10-19T18:39:04;13.97;89.65
68990;DHT22;56046;47.270;11.368;2022-10-19T18:41:30;13.91;89.63
68990;DHT22;56046;47.270;11.368;2022-10-19T18:43:59;13.78;90.14
68990;DHT22;56046;47.270;11.368;2022-10-19T18:46:30;13.70;90.28
68990;DHT22;56046;47.270;11.368;2022-10-19T18:48:58;13.64;90.48
68990;DHT22;56046;47.270;11.368;2022-10-19T18:51:24;13.57;90.64
68990;DHT22;56046;47.270;11.368;2022-10-19T18:53:50;13.46;91.14
68990;DHT22;56046;47.270;11.368;2022-10-19T18:56:19;13.39;91.62
68990;DHT22;56046;47.270;11.368;2022-10-19T18:58:46;13.38;92.00
68990;DHT22;56046;47.270;11.368;2022-10-19T19:01:17;13.40;92.17
68990;DHT22;56046;47.270;11.368;2022-10-19T19:03:46;13.47;91.90
68990;DHT22;56046;47.270;11.368;2022-10-19T19:08:49;13.44;91.60
68990;DHT22;56046;47.270;11.368;2022-10-19T19:11:17;13.38;92.03
68990;DHT22;56046;47.270;11.368;2022-10-19T19:13:51;13.23;91.96
68990;DHT22;56046;47.270;11.368;2022-10-19T19:16:18;13.11;92.33
68990;DHT22;56046;47.270;11.368;2022-10-19T19:18:44;12.98;92.70
68990;DHT22;56046;47.270;11.368;2022-10-19T19:21:17;12.87;93.40
68990;DHT22;56046;47.270;11.368;2022-10-19T19:23:43;12.87;93.48
68990;DHT22;56046;47.270;11.368;2022-10-19T19:26:10;12.91;93.34
68990;DHT22;56046;47.270;11.368;2022-10-19T19:28:38;12.87;93.29
68990;DHT22;56046;47.270;11.368;2022-10-19T19:31:04;12.87;93.06
68990;DHT22;56046;47.270;11.368;2022-10-19T19:33:31;12.91;92.96
68990;DHT22;56046;47.270;11.368;2022-10-19T19:35:56;12.84;93.09
68990;DHT22;56046;47.270;11.368;2022-10-19T19:38:22;12.84;93.39
68990;DHT22;56046;47.270;11.368;2022-10-19T19:40:48;12.77;93.25
68990;DHT22;56046;47.270;11.368;2022-10-19T19:43:15;12.74;93.51
68990;DHT22;56046;47.270;11.368;2022-10-19T19:45:42;12.68;93.76
68990;DHT22;56046;47.270;11.368;2022-10-19T19:48:09;12.67;93.57
68990;DHT22;56046;47.270;11.368;2022-10-19T19:50:36;12.64;93.65
68990;DHT22;56046;47.270;11.368;2022-10-19T19:53:03;12.75;93.87
68990;DHT22;56046;47.270;11.368;2022-10-19T19:55:32;12.74;93.40
68990;DHT22;56046;47.270;11.368;2022-10-19T19:57:59;12.64;93.66
68990;DHT22;56046;47.270;11.368;2022-10-19T20:00:25;12.53;93.93
68990;DHT22;56046;47.270;11.368;2022-10-19T20:02:55;12.49;94.54
68990;DHT22;56046;47.270;11.368;2022-10-19T20:05:22;12.46;94.73
68990;DHT22;56046;47.270;11.368;2022-10-19T20:07:48;12.40;94.32
68990;DHT22;56046;47.270;11.368;2022-10-19T20:10:16;12.28;94.72
68990;DHT22;56046;47.270;11.368;2022-10-19T20:12:45;12.32;94.72
68990;DHT22;56046;47.270;11.368;2022-10-19T20:15:13;12.30;94.76
68990;DHT22;56046;47.270;11.368;2022-10-19T20:17:41;12.22;94.99
68990;DHT22;56046;47.270;11.368;2022-10-19T20:20:08;12.16;94.95
68990;DHT22;56046;47.270;11.368;2022-10-19T20:22:36;12.22;95.65
68990;DHT22;56046;47.270;11.368;2022-10-19T20:25:02;12.26;95.56
68990;DHT22;56046;47.270;11.368;2022-10-19T20:27:28;12.33;95.22
68990;DHT22;56046;47.270;11.368;2022-10-19T20:29:53;12.39;94.81
68990;DHT22;56046;47.270;11.368;2022-10-19T20:32:27;12.47;94.82
68990;DHT22;56046;47.270;11.368;2022-10-19T20:34:53;12.60;94.22
68990;DHT22;56046;47.270;11.368;2022-10-19T20:37:20;12.68;93.89
68990;DHT22;56046;47.270;11.368;2022-10-19T20:39:46;12.73;93.81
68990;DHT22;56046;47.270;11.368;2022-10-19T20:42:13;12.81;93.63
68990;DHT22;56046;47.270;11.368;2022-10-19T20:44:39;12.88;93.47
68990;DHT22;56046;47.270;11.368;2022-10-19T20:47:05;12.92;92.96
68990;DHT22;56046;47.270;11.368;2022-10-19T20:49:31;13.04;92.80
68990;DHT22;56046;47.270;11.368;2022-10-19T20:51:56;13.12;92.64
68990;DHT22;56046;47.270;11.368;2022-10-19T20:54:22;13.18;92.54
68990;DHT22;56046;47.270;11.368;2022-10-19T20:56:48;13.19;92.27
68990;DHT22;56046;47.270;11.368;2022-10-19T20:59:17;13.26;92.12
68990;DHT22;56046;47.270;11.368;2022-10-19T21:01:45;13.29;91.25
68990;DHT22;56046;47.270;11.368;2022-10-19T21:04:13;13.35;89.92
68990;DHT22;56046;47.270;11.368;2022-10-19T21:06:41;13.39;89.20
68990;DHT22;56046;47.270;11.368;2022-10-19T21:09:08;13.35;88.87
68990;DHT22;56046;47.270;11.368;2022-10-19T21:11:35;13.33;88.92
68990;DHT22;56046;47.270;11.368;2022-10-19T21:14:07;13.26;89.19
68990;DHT22;56046;47.270;11.368;2022-10-19T21:16:32;13.22;89.17
68990;DHT22;56046;47.270;11.368;2022-10-19T21:19:03;13.11;87.87
68990;DHT22;56046;47.270;11.368;2022-10-19T21:21:34;12.98;87.86
68990;DHT22;56046;47.270;11.368;2022-10-19T21:24:10;12.78;86.28
68990;DHT22;56046;47.270;11.368;2022-10-19T21:26:36;12.67;86.65
68990;DHT22;56046;47.270;11.368;2022-10-19T21:29:03;12.60;86.62
68990;DHT22;56046;47.270;11.368;2022-10-19T21:31:29;12.46;86.96
68990;DHT22;56046;47.270;11.368;2022-10-19T21:33:55;12.39;86.89
68990;DHT22;56046;47.270;11.368;2022-10-19T21:36:22;12.25;87.09
68990;DHT22;56046;47.270;11.368;2022-10-19T21:38:49;12.13;87.25
68990;DHT22;56046;47.270;11.368;2022-10-19T21:41:17;12.08;87.35
68990;DHT22;56046;47.270;11.368;2022-10-19T21:43:43;12.02;87.63
68990;DHT22;56046;47.270;11.368;2022-10-19T21:46:15;12.11;87.73
68990;DHT22;56046;47.270;11.368;2022-10-19T21:48:41;12.05;88.55
68990;DHT22;56046;47.270;11.368;2022-10-19T21:53:41;12.39;88.52
68990;DHT22;56046;47.270;11.368;2022-10-19T21:56:07;12.50;89.22
68990;DHT22;56046;47.270;11.368;2022-10-19T21:58:32;12.60;89.03
68990;DHT22;56046;47.270;11.368;2022-10-19T22:01:05;12.68;88.79
68990;DHT22;56046;47.270;11.368;2022-10-19T22:03:31;12.74;88.58
68990;DHT22;56046;47.270;11.368;2022-10-19T22:05:57;12.80;88.63
68990;DHT22;56046;47.270;11.368;2022-10-19T22:08:22;12.85;88.56
68990;DHT22;56046;47.270;11.368;2022-10-19T22:10:48;12.87;88.70
68990;DHT22;56046;47.270;11.368;2022-10-19T22:13:13;12.89;88.96
68990;DHT22;56046;47.270;11.368;2022-10-19T22:15:40;12.98;88.96
68990;DHT22;56046;47.270;11.368;2022-10-19T22:18:05;12.96;88.58
68990;DHT22;56046;47.270;11.368;2022-10-19T22:20:34;12.99;88.27
68990;DHT22;56046;47.270;11.368;2022-10-19T22:23:00;13.05;88.56
68990;DHT22;56046;47.270;11.368;2022-10-19T22:25:26;13.12;88.51
68990;DHT22;56046;47.270;11.368;2022-10-19T22:27:51;13.11;88.40
68990;DHT22;56046;47.270;11.368;2022-10-19T22:30:17;13.09;87.71
68990;DHT22;56046;47.270;11.368;2022-10-19T22:32:42;13.02;87.33
68990;DHT22;56046;47.270;11.368;2022-10-19T22:35:08;12.99;87.26
68990;DHT22;56046;47.270;11.368;2022-10-19T22:37:33;13.02;86.42
68990;DHT22;56046;47.270;11.368;2022-10-19T22:39:58;12.96;86.06
68990;DHT22;56046;47.270;11.368;2022-10-19T22:42:24;12.84;86.15
68990;DHT22;56046;47.270;11.368;2022-10-19T22:44:49;12.75;86.09
68990;DHT22;56046;47.270;11.368;2022-10-19T22:47:15;12.63;86.37
68990;DHT22;56046;47.270;11.368;2022-10-19T22:49:40;12.54;86.96
68990;DHT22;56046;47.270;11.368;2022-10-19T22:52:06;12.50;87.32
68990;DHT22;56046;47.270;11.368;2022-10-19T22:54:31;12.43;87.26
68990;DHT22;56046;47.270;11.368;2022-10-19T22:56:56;12.39;86.70
68990;DHT22;56046;47.270;11.368;2022-10-19T22:59:22;12.20;86.81
68990;DHT22;56046;47.270;11.368;2022-10-19T23:01:47;12.03;87.31
68990;DHT22;56046;47.270;11.368;2022-10-19T23:04:13;11.92;87.84
68990;DHT22;56046;47.270;11.368;2022-10-19T23:06:38;11.88;88.12
68990;DHT22;56046;47.270;11.368;2022-10-19T23:09:05;11.85;88.82
68990;DHT22;56046;47.270;11.368;2022-10-19T23:11:30;11.93;88.71
68990;DHT22;56046;47.270;11.368;2022-10-19T23:13:56;11.92;88.65